Terminal Aerodrome Forecast
Issued by NWS Goodland, KS

Home | Current Version | Previous Version | Text Only | Print | Product List | Glossary On
Versions: 1 2 3 4 5 6 7 8 9 10 11 12 13 14 15 16
019
FTUS43 KGLD 200528
TAFGLD
TAF
KGLD 200528Z 2006/2106 13009KT 3SM BR OVC003
      TEMPO 2010/2014 1/4SM FZFG
     FM201500 33007KT 5SM BR SCT007
     FM201600 35008KT P6SM SCT250
     FM202100 33009KT P6SM VCSH BKN050=

USA.gov is the U.S. government's official web portal to all federal, state and local government web resources and services.